sensor_id;sensor_type;location;lat;lon;timestamp;P1;durP1;ratioP1;P2;durP2;ratioP2
30743;SDS011;17486;46.738;7.622;2023-05-14T00:00:34;1.88;;;1.77;;
30743;SDS011;17486;46.738;7.622;2023-05-14T00:03:00;2.97;;;1.60;;
30743;SDS011;17486;46.738;7.622;2023-05-14T00:05:25;1.45;;;1.30;;
30743;SDS011;17486;46.738;7.622;2023-05-14T00:07:51;1.88;;;1.77;;
30743;SDS011;17486;46.738;7.622;2023-05-14T00:10:16;1.35;;;1.25;;
30743;SDS011;17486;46.738;7.622;2023-05-14T00:12:43;1.70;;;1.30;;
30743;SDS011;17486;46.738;7.622;2023-05-14T00:15:08;1.92;;;1.38;;
30743;SDS011;17486;46.738;7.622;2023-05-14T00:17:34;2.17;;;1.50;;
30743;SDS011;17486;46.738;7.622;2023-05-14T00:19:59;1.65;;;1.33;;
30743;SDS011;17486;46.738;7.622;2023-05-14T00:22:24;1.50;;;1.10;;
30743;SDS011;17486;46.738;7.622;2023-05-14T00:24:50;1.00;;;1.00;;
30743;SDS011;17486;46.738;7.622;2023-05-14T00:27:15;0.98;;;0.98;;
30743;SDS011;17486;46.738;7.622;2023-05-14T00:29:40;1.95;;;0.90;;
30743;SDS011;17486;46.738;7.622;2023-05-14T00:32:06;3.45;;;1.10;;
30743;SDS011;17486;46.738;7.622;2023-05-14T00:34:31;1.45;;;1.35;;
30743;SDS011;17486;46.738;7.622;2023-05-14T00:36:57;3.05;;;1.00;;
30743;SDS011;17486;46.738;7.622;2023-05-14T00:39:22;0.90;;;0.90;;
30743;SDS011;17486;46.738;7.622;2023-05-14T00:41:47;1.77;;;1.02;;
30743;SDS011;17486;46.738;7.622;2023-05-14T00:44:13;1.05;;;1.00;;
30743;SDS011;17486;46.738;7.622;2023-05-14T00:46:38;2.90;;;1.20;;
30743;SDS011;17486;46.738;7.622;2023-05-14T00:49:04;0.98;;;0.90;;
30743;SDS011;17486;46.738;7.622;2023-05-14T00:51:29;1.67;;;1.40;;
30743;SDS011;17486;46.738;7.622;2023-05-14T00:53:55;2.58;;;1.13;;
30743;SDS011;17486;46.738;7.622;2023-05-14T00:56:21;1.98;;;0.90;;
30743;SDS011;17486;46.738;7.622;2023-05-14T00:58:46;1.23;;;1.13;;
30743;SDS011;17486;46.738;7.622;2023-05-14T01:01:11;1.13;;;1.02;;
30743;SDS011;17486;46.738;7.622;2023-05-14T01:03:39;1.48;;;1.00;;
30743;SDS011;17486;46.738;7.622;2023-05-14T01:12:22;0.85;;;0.85;;
30743;SDS011;17486;46.738;7.622;2023-05-14T01:16:57;2.37;;;1.10;;
30743;SDS011;17486;46.738;7.622;2023-05-14T01:19:42;3.83;;;1.48;;
30743;SDS011;17486;46.738;7.622;2023-05-14T01:22:09;1.15;;;1.05;;
30743;SDS011;17486;46.738;7.622;2023-05-14T01:24:35;2.67;;;1.25;;
30743;SDS011;17486;46.738;7.622;2023-05-14T01:29:39;1.10;;;1.00;;
30743;SDS011;17486;46.738;7.622;2023-05-14T01:32:09;1.67;;;1.27;;
30743;SDS011;17486;46.738;7.622;2023-05-14T01:34:36;5.88;;;1.45;;
30743;SDS011;17486;46.738;7.622;2023-05-14T01:37:02;4.05;;;1.15;;
30743;SDS011;17486;46.738;7.622;2023-05-14T01:39:29;1.17;;;1.08;;
30743;SDS011;17486;46.738;7.622;2023-05-14T01:41:56;1.05;;;0.95;;
30743;SDS011;17486;46.738;7.622;2023-05-14T01:44:22;2.45;;;1.25;;
30743;SDS011;17486;46.738;7.622;2023-05-14T01:46:48;3.15;;;1.00;;
30743;SDS011;17486;46.738;7.622;2023-05-14T01:49:14;1.42;;;1.25;;
30743;SDS011;17486;46.738;7.622;2023-05-14T01:51:42;2.25;;;1.25;;
30743;SDS011;17486;46.738;7.622;2023-05-14T01:54:07;2.90;;;1.60;;
30743;SDS011;17486;46.738;7.622;2023-05-14T01:56:32;2.00;;;1.30;;
30743;SDS011;17486;46.738;7.622;2023-05-14T01:58:58;2.22;;;1.70;;
30743;SDS011;17486;46.738;7.622;2023-05-14T02:01:23;1.80;;;1.70;;
30743;SDS011;17486;46.738;7.622;2023-05-14T02:03:50;3.30;;;2.05;;
30743;SDS011;17486;46.738;7.622;2023-05-14T02:06:15;4.88;;;2.53;;
30743;SDS011;17486;46.738;7.622;2023-05-14T02:08:40;8.55;;;3.35;;
30743;SDS011;17486;46.738;7.622;2023-05-14T02:11:06;7.45;;;3.55;;
30743;SDS011;17486;46.738;7.622;2023-05-14T02:13:31;7.82;;;4.28;;
30743;SDS011;17486;46.738;7.622;2023-05-14T02:15:56;9.90;;;4.35;;
30743;SDS011;17486;46.738;7.622;2023-05-14T02:18:22;7.43;;;4.07;;
30743;SDS011;17486;46.738;7.622;2023-05-14T02:20:47;6.70;;;3.97;;
30743;SDS011;17486;46.738;7.622;2023-05-14T02:23:12;6.25;;;2.92;;
30743;SDS011;17486;46.738;7.622;2023-05-14T02:25:38;4.75;;;2.60;;
30743;SDS011;17486;46.738;7.622;2023-05-14T02:28:03;4.82;;;2.40;;
30743;SDS011;17486;46.738;7.622;2023-05-14T02:30:29;7.95;;;2.67;;
30743;SDS011;17486;46.738;7.622;2023-05-14T02:32:55;5.38;;;2.75;;
30743;SDS011;17486;46.738;7.622;2023-05-14T02:35:21;4.57;;;2.80;;
30743;SDS011;17486;46.738;7.622;2023-05-14T02:37:46;3.35;;;2.22;;
30743;SDS011;17486;46.738;7.622;2023-05-14T02:40:12;3.05;;;2.28;;
30743;SDS011;17486;46.738;7.622;2023-05-14T02:42:37;3.42;;;2.30;;
30743;SDS011;17486;46.738;7.622;2023-05-14T02:45:03;3.53;;;2.50;;
30743;SDS011;17486;46.738;7.622;2023-05-14T02:47:28;3.95;;;2.35;;
30743;SDS011;17486;46.738;7.622;2023-05-14T02:49:53;4.15;;;2.30;;
30743;SDS011;17486;46.738;7.622;2023-05-14T02:52:19;3.45;;;2.10;;
30743;SDS011;17486;46.738;7.622;2023-05-14T02:54:44;3.22;;;1.45;;
30743;SDS011;17486;46.738;7.622;2023-05-14T02:57:09;2.03;;;1.45;;
30743;SDS011;17486;46.738;7.622;2023-05-14T02:59:35;2.67;;;1.70;;
30743;SDS011;17486;46.738;7.622;2023-05-14T03:02:00;2.35;;;1.42;;
30743;SDS011;17486;46.738;7.622;2023-05-14T03:04:26;1.25;;;1.10;;
30743;SDS011;17486;46.738;7.622;2023-05-14T03:06:51;1.38;;;1.20;;
30743;SDS011;17486;46.738;7.622;2023-05-14T03:09:16;3.60;;;1.10;;
30743;SDS011;17486;46.738;7.622;2023-05-14T03:11:42;1.63;;;1.33;;
30743;SDS011;17486;46.738;7.622;2023-05-14T03:14:07;2.95;;;1.65;;
30743;SDS011;17486;46.738;7.622;2023-05-14T03:16:32;1.77;;;1.55;;
30743;SDS011;17486;46.738;7.622;2023-05-14T03:18:58;3.20;;;1.60;;
30743;SDS011;17486;46.738;7.622;2023-05-14T03:21:23;3.22;;;1.70;;
30743;SDS011;17486;46.738;7.622;2023-05-14T03:23:49;3.47;;;1.90;;
30743;SDS011;17486;46.738;7.622;2023-05-14T03:26:16;2.15;;;1.55;;
30743;SDS011;17486;46.738;7.622;2023-05-14T03:28:41;2.83;;;1.70;;
30743;SDS011;17486;46.738;7.622;2023-05-14T03:31:06;4.20;;;1.92;;
30743;SDS011;17486;46.738;7.622;2023-05-14T03:33:32;3.03;;;1.65;;
30743;SDS011;17486;46.738;7.622;2023-05-14T03:35:57;2.88;;;1.60;;
30743;SDS011;17486;46.738;7.622;2023-05-14T03:38:23;3.10;;;1.92;;
30743;SDS011;17486;46.738;7.622;2023-05-14T03:40:48;2.65;;;1.90;;
30743;SDS011;17486;46.738;7.622;2023-05-14T03:43:13;2.72;;;2.10;;
30743;SDS011;17486;46.738;7.622;2023-05-14T03:45:40;6.32;;;2.45;;
30743;SDS011;17486;46.738;7.622;2023-05-14T03:48:05;6.13;;;3.53;;
30743;SDS011;17486;46.738;7.622;2023-05-14T03:50:31;8.85;;;3.50;;
30743;SDS011;17486;46.738;7.622;2023-05-14T03:52:56;6.45;;;3.58;;
30743;SDS011;17486;46.738;7.622;2023-05-14T03:55:21;8.40;;;3.60;;
30743;SDS011;17486;46.738;7.622;2023-05-14T03:57:47;8.15;;;4.32;;
30743;SDS011;17486;46.738;7.622;2023-05-14T04:00:12;8.82;;;4.00;;
30743;SDS011;17486;46.738;7.622;2023-05-14T04:02:38;7.25;;;4.10;;
30743;SDS011;17486;46.738;7.622;2023-05-14T04:05:04;8.38;;;3.95;;
30743;SDS011;17486;46.738;7.622;2023-05-14T04:07:29;7.07;;;2.72;;
30743;SDS011;17486;46.738;7.622;2023-05-14T04:09:55;3.88;;;2.20;;
30743;SDS011;17486;46.738;7.622;2023-05-14T04:12:20;3.53;;;2.30;;
30743;SDS011;17486;46.738;7.622;2023-05-14T04:14:45;2.22;;;1.88;;
30743;SDS011;17486;46.738;7.622;2023-05-14T04:17:11;2.35;;;2.10;;
30743;SDS011;17486;46.738;7.622;2023-05-14T04:19:36;3.63;;;2.10;;
30743;SDS011;17486;46.738;7.622;2023-05-14T04:22:03;3.28;;;2.03;;
30743;SDS011;17486;46.738;7.622;2023-05-14T04:24:29;2.20;;;1.95;;
30743;SDS011;17486;46.738;7.622;2023-05-14T04:26:54;4.00;;;2.40;;
30743;SDS011;17486;46.738;7.622;2023-05-14T04:29:19;3.97;;;2.25;;
30743;SDS011;17486;46.738;7.622;2023-05-14T04:31:45;2.38;;;1.98;;
30743;SDS011;17486;46.738;7.622;2023-05-14T04:34:10;2.10;;;1.90;;
30743;SDS011;17486;46.738;7.622;2023-05-14T04:36:36;2.17;;;1.70;;
30743;SDS011;17486;46.738;7.622;2023-05-14T04:39:01;2.00;;;1.80;;
30743;SDS011;17486;46.738;7.622;2023-05-14T04:41:27;4.15;;;1.73;;
30743;SDS011;17486;46.738;7.622;2023-05-14T04:43:54;1.75;;;1.60;;
30743;SDS011;17486;46.738;7.622;2023-05-14T04:46:20;2.50;;;1.60;;
30743;SDS011;17486;46.738;7.622;2023-05-14T04:48:46;1.80;;;1.70;;
30743;SDS011;17486;46.738;7.622;2023-05-14T04:51:12;2.42;;;1.83;;
30743;SDS011;17486;46.738;7.622;2023-05-14T04:53:37;3.10;;;1.92;;
30743;SDS011;17486;46.738;7.622;2023-05-14T04:56:03;2.17;;;1.60;;
30743;SDS011;17486;46.738;7.622;2023-05-14T04:58:28;1.92;;;1.65;;
30743;SDS011;17486;46.738;7.622;2023-05-14T05:00:56;3.35;;;1.88;;
30743;SDS011;17486;46.738;7.622;2023-05-14T05:03:22;1.70;;;1.60;;
30743;SDS011;17486;46.738;7.622;2023-05-14T05:05:47;2.53;;;1.85;;
30743;SDS011;17486;46.738;7.622;2023-05-14T05:08:12;3.83;;;2.20;;
30743;SDS011;17486;46.738;7.622;2023-05-14T05:10:38;4.97;;;2.85;;
30743;SDS011;17486;46.738;7.622;2023-05-14T05:13:03;7.10;;;3.08;;
30743;SDS011;17486;46.738;7.622;2023-05-14T05:15:28;5.80;;;2.85;;
30743;SDS011;17486;46.738;7.622;2023-05-14T05:17:54;4.40;;;3.10;;
30743;SDS011;17486;46.738;7.622;2023-05-14T05:20:19;2.97;;;2.45;;
30743;SDS011;17486;46.738;7.622;2023-05-14T05:22:44;2.80;;;2.60;;
30743;SDS011;17486;46.738;7.622;2023-05-14T05:25:10;3.28;;;2.75;;
30743;SDS011;17486;46.738;7.622;2023-05-14T05:27:36;4.45;;;2.42;;
30743;SDS011;17486;46.738;7.622;2023-05-14T05:30:02;5.45;;;2.35;;
30743;SDS011;17486;46.738;7.622;2023-05-14T05:32:28;5.82;;;2.58;;
30743;SDS011;17486;46.738;7.622;2023-05-14T05:34:54;4.20;;;2.20;;
30743;SDS011;17486;46.738;7.622;2023-05-14T05:37:19;3.33;;;2.25;;
30743;SDS011;17486;46.738;7.622;2023-05-14T05:39:45;3.03;;;2.10;;
30743;SDS011;17486;46.738;7.622;2023-05-14T05:42:12;3.10;;;2.30;;
30743;SDS011;17486;46.738;7.622;2023-05-14T05:44:37;2.28;;;1.98;;
30743;SDS011;17486;46.738;7.622;2023-05-14T05:47:03;3.47;;;1.90;;
30743;SDS011;17486;46.738;7.622;2023-05-14T05:49:28;3.47;;;1.90;;
30743;SDS011;17486;46.738;7.622;2023-05-14T05:51:54;2.13;;;1.92;;
30743;SDS011;17486;46.738;7.622;2023-05-14T05:54:19;3.20;;;2.03;;
30743;SDS011;17486;46.738;7.622;2023-05-14T05:56:44;2.20;;;2.00;;
30743;SDS011;17486;46.738;7.622;2023-05-14T05:59:10;2.33;;;1.83;;
30743;SDS011;17486;46.738;7.622;2023-05-14T06:01:35;2.45;;;1.98;;
30743;SDS011;17486;46.738;7.622;2023-05-14T06:04:01;2.05;;;1.88;;
30743;SDS011;17486;46.738;7.622;2023-05-14T06:06:28;1.60;;;1.50;;
30743;SDS011;17486;46.738;7.622;2023-05-14T06:08:53;2.03;;;1.52;;
30743;SDS011;17486;46.738;7.622;2023-05-14T06:11:19;1.90;;;1.58;;
30743;SDS011;17486;46.738;7.622;2023-05-14T06:13:45;4.10;;;1.55;;
30743;SDS011;17486;46.738;7.622;2023-05-14T06:16:11;1.92;;;1.73;;
30743;SDS011;17486;46.738;7.622;2023-05-14T06:18:36;2.25;;;1.90;;
30743;SDS011;17486;46.738;7.622;2023-05-14T06:21:01;2.55;;;1.90;;
30743;SDS011;17486;46.738;7.622;2023-05-14T06:23:27;2.08;;;1.95;;
30743;SDS011;17486;46.738;7.622;2023-05-14T06:25:52;3.17;;;2.60;;
30743;SDS011;17486;46.738;7.622;2023-05-14T06:28:17;2.70;;;2.50;;
30743;SDS011;17486;46.738;7.622;2023-05-14T06:30:43;2.75;;;2.28;;
30743;SDS011;17486;46.738;7.622;2023-05-14T06:33:08;2.30;;;1.88;;
30743;SDS011;17486;46.738;7.622;2023-05-14T06:35:33;2.05;;;1.67;;
30743;SDS011;17486;46.738;7.622;2023-05-14T06:37:59;2.03;;;1.90;;
30743;SDS011;17486;46.738;7.622;2023-05-14T06:40:24;3.00;;;2.05;;
30743;SDS011;17486;46.738;7.622;2023-05-14T06:42:50;2.00;;;1.60;;
30743;SDS011;17486;46.738;7.622;2023-05-14T06:45:15;1.58;;;1.25;;
30743;SDS011;17486;46.738;7.622;2023-05-14T06:47:40;1.30;;;1.20;;
30743;SDS011;17486;46.738;7.622;2023-05-14T06:50:06;1.42;;;1.10;;
30743;SDS011;17486;46.738;7.622;2023-05-14T06:52:31;1.48;;;1.38;;
30743;SDS011;17486;46.738;7.622;2023-05-14T06:54:57;1.23;;;1.13;;
30743;SDS011;17486;46.738;7.622;2023-05-14T06:57:22;1.50;;;1.40;;
30743;SDS011;17486;46.738;7.622;2023-05-14T06:59:48;1.48;;;1.38;;
30743;SDS011;17486;46.738;7.622;2023-05-14T07:02:13;1.20;;;1.10;;
30743;SDS011;17486;46.738;7.622;2023-05-14T07:04:38;1.20;;;1.10;;
30743;SDS011;17486;46.738;7.622;2023-05-14T07:07:04;2.13;;;1.20;;
30743;SDS011;17486;46.738;7.622;2023-05-14T07:09:29;1.50;;;1.40;;
30743;SDS011;17486;46.738;7.622;2023-05-14T07:11:55;1.25;;;1.15;;
30743;SDS011;17486;46.738;7.622;2023-05-14T07:14:20;1.35;;;1.20;;
30743;SDS011;17486;46.738;7.622;2023-05-14T07:16:45;801.58;;;555.58;;
30743;SDS011;17486;46.738;7.622;2023-05-14T07:19:11;498.83;;;382.75;;
30743;SDS011;17486;46.738;7.622;2023-05-14T07:21:37;198.93;;;133.73;;
30743;SDS011;17486;46.738;7.622;2023-05-14T07:24:02;167.73;;;110.80;;
30743;SDS011;17486;46.738;7.622;2023-05-14T07:26:28;59.40;;;39.95;;
30743;SDS011;17486;46.738;7.622;2023-05-14T07:28:53;11.15;;;7.85;;
30743;SDS011;17486;46.738;7.622;2023-05-14T07:31:18;10.32;;;3.53;;
30743;SDS011;17486;46.738;7.622;2023-05-14T07:33:44;3.17;;;2.00;;
30743;SDS011;17486;46.738;7.622;2023-05-14T07:36:09;2.10;;;1.23;;
30743;SDS011;17486;46.738;7.622;2023-05-14T07:38:34;2.17;;;1.40;;
30743;SDS011;17486;46.738;7.622;2023-05-14T07:41:00;1.20;;;1.10;;
30743;SDS011;17486;46.738;7.622;2023-05-14T07:43:25;1.25;;;1.15;;
30743;SDS011;17486;46.738;7.622;2023-05-14T07:45:51;1.27;;;1.17;;
30743;SDS011;17486;46.738;7.622;2023-05-14T07:48:16;1.48;;;1.25;;
30743;SDS011;17486;46.738;7.622;2023-05-14T07:50:42;3.17;;;1.35;;
30743;SDS011;17486;46.738;7.622;2023-05-14T07:53:07;2.40;;;1.40;;
30743;SDS011;17486;46.738;7.622;2023-05-14T07:55:33;1.30;;;1.10;;
30743;SDS011;17486;46.738;7.622;2023-05-14T07:57:58;1.33;;;0.93;;
30743;SDS011;17486;46.738;7.622;2023-05-14T08:00:23;1.88;;;1.00;;
30743;SDS011;17486;46.738;7.622;2023-05-14T08:02:49;1.45;;;1.20;;
30743;SDS011;17486;46.738;7.622;2023-05-14T08:05:15;1.92;;;0.98;;
30743;SDS011;17486;46.738;7.622;2023-05-14T08:07:41;1.40;;;0.95;;
30743;SDS011;17486;46.738;7.622;2023-05-14T08:10:07;0.90;;;0.90;;
30743;SDS011;17486;46.738;7.622;2023-05-14T08:12:33;1.00;;;0.88;;
30743;SDS011;17486;46.738;7.622;2023-05-14T08:14:58;0.85;;;0.75;;
30743;SDS011;17486;46.738;7.622;2023-05-14T08:17:24;0.80;;;0.80;;
30743;SDS011;17486;46.738;7.622;2023-05-14T08:19:49;1.55;;;0.90;;
30743;SDS011;17486;46.738;7.622;2023-05-14T08:22:14;1.20;;;1.10;;
30743;SDS011;17486;46.738;7.622;2023-05-14T08:24:40;1.48;;;1.10;;
30743;SDS011;17486;46.738;7.622;2023-05-14T08:27:07;0.93;;;0.90;;
30743;SDS011;17486;46.738;7.622;2023-05-14T08:29:32;2.03;;;1.08;;
30743;SDS011;17486;46.738;7.622;2023-05-14T08:31:58;1.98;;;0.60;;
30743;SDS011;17486;46.738;7.622;2023-05-14T08:34:23;80.28;;;55.67;;
30743;SDS011;17486;46.738;7.622;2023-05-14T08:36:48;207.23;;;144.73;;
30743;SDS011;17486;46.738;7.622;2023-05-14T08:39:14;133.00;;;94.43;;
30743;SDS011;17486;46.738;7.622;2023-05-14T08:41:40;100.30;;;72.68;;
30743;SDS011;17486;46.738;7.622;2023-05-14T08:44:06;39.25;;;29.48;;
30743;SDS011;17486;46.738;7.622;2023-05-14T08:46:36;11.10;;;8.13;;
30743;SDS011;17486;46.738;7.622;2023-05-14T08:51:59;1.80;;;1.40;;
30743;SDS011;17486;46.738;7.622;2023-05-14T08:54:25;1.38;;;1.17;;
30743;SDS011;17486;46.738;7.622;2023-05-14T08:56:52;1.92;;;1.05;;
30743;SDS011;17486;46.738;7.622;2023-05-14T08:59:18;1.30;;;1.20;;
30743;SDS011;17486;46.738;7.622;2023-05-14T09:01:48;1.60;;;1.40;;
30743;SDS011;17486;46.738;7.622;2023-05-14T09:06:44;2.20;;;2.00;;
30743;SDS011;17486;46.738;7.622;2023-05-14T09:09:12;3.00;;;2.70;;
30743;SDS011;17486;46.738;7.622;2023-05-14T09:11:42;3.13;;;2.83;;
30743;SDS011;17486;46.738;7.622;2023-05-14T09:14:10;2.60;;;2.40;;
30743;SDS011;17486;46.738;7.622;2023-05-14T09:16:35;90.63;;;63.15;;
30743;SDS011;17486;46.738;7.622;2023-05-14T09:19:01;142.02;;;90.43;;
30743;SDS011;17486;46.738;7.622;2023-05-14T09:21:28;176.63;;;112.25;;
30743;SDS011;17486;46.738;7.622;2023-05-14T09:23:56;55.67;;;37.47;;
30743;SDS011;17486;46.738;7.622;2023-05-14T09:26:23;16.45;;;12.30;;
30743;SDS011;17486;46.738;7.622;2023-05-14T09:28:53;5.43;;;4.53;;
30743;SDS011;17486;46.738;7.622;2023-05-14T09:31:20;3.40;;;3.10;;
30743;SDS011;17486;46.738;7.622;2023-05-14T09:33:51;3.20;;;2.90;;
30743;SDS011;17486;46.738;7.622;2023-05-14T09:36:17;2.90;;;2.58;;
30743;SDS011;17486;46.738;7.622;2023-05-14T09:38:43;2.67;;;2.40;;
30743;SDS011;17486;46.738;7.622;2023-05-14T09:41:09;2.42;;;2.10;;
30743;SDS011;17486;46.738;7.622;2023-05-14T09:43:34;2.35;;;2.15;;
30743;SDS011;17486;46.738;7.622;2023-05-14T09:46:00;1.73;;;1.63;;
30743;SDS011;17486;46.738;7.622;2023-05-14T09:48:25;2.25;;;2.13;;
30743;SDS011;17486;46.738;7.622;2023-05-14T09:50:53;2.25;;;2.05;;
30743;SDS011;17486;46.738;7.622;2023-05-14T09:53:19;3.08;;;2.78;;
30743;SDS011;17486;46.738;7.622;2023-05-14T09:55:45;3.38;;;3.08;;
30743;SDS011;17486;46.738;7.622;2023-05-14T09:58:11;4.70;;;4.30;;
30743;SDS011;17486;46.738;7.622;2023-05-14T10:00:38;4.55;;;4.15;;
30743;SDS011;17486;46.738;7.622;2023-05-14T10:03:06;4.60;;;3.78;;
30743;SDS011;17486;46.738;7.622;2023-05-14T10:05:33;3.67;;;3.38;;
30743;SDS011;17486;46.738;7.622;2023-05-14T10:08:02;4.10;;;3.70;;
30743;SDS011;17486;46.738;7.622;2023-05-14T10:10:31;4.53;;;4.13;;
30743;SDS011;17486;46.738;7.622;2023-05-14T10:12:57;7.68;;;4.65;;
30743;SDS011;17486;46.738;7.622;2023-05-14T10:21:03;5.03;;;4.53;;
30743;SDS011;17486;46.738;7.622;2023-05-14T10:23:30;5.15;;;4.65;;
30743;SDS011;17486;46.738;7.622;2023-05-14T10:25:56;4.15;;;3.78;;
30743;SDS011;17486;46.738;7.622;2023-05-14T10:28:22;4.15;;;3.85;;
30743;SDS011;17486;46.738;7.622;2023-05-14T10:30:48;4.00;;;3.60;;
30743;SDS011;17486;46.738;7.622;2023-05-14T10:33:14;3.97;;;3.63;;
30743;SDS011;17486;46.738;7.622;2023-05-14T10:38:29;3.72;;;3.42;;
30743;SDS011;17486;46.738;7.622;2023-05-14T10:41:01;3.90;;;3.00;;
30743;SDS011;17486;46.738;7.622;2023-05-14T10:43:35;4.00;;;3.15;;
30743;SDS011;17486;46.738;7.622;2023-05-14T10:46:02;85.63;;;58.08;;
30743;SDS011;17486;46.738;7.622;2023-05-14T10:48:35;211.77;;;145.48;;
30743;SDS011;17486;46.738;7.622;2023-05-14T10:51:06;201.45;;;146.38;;
30743;SDS011;17486;46.738;7.622;2023-05-14T10:53:36;93.40;;;67.25;;
30743;SDS011;17486;46.738;7.622;2023-05-14T10:56:05;25.20;;;20.35;;
30743;SDS011;17486;46.738;7.622;2023-05-14T10:58:35;9.63;;;7.47;;
30743;SDS011;17486;46.738;7.622;2023-05-14T11:01:02;6.50;;;5.90;;
30743;SDS011;17486;46.738;7.622;2023-05-14T11:03:30;4.80;;;4.10;;
30743;SDS011;17486;46.738;7.622;2023-05-14T11:05:56;4.57;;;4.18;;
30743;SDS011;17486;46.738;7.622;2023-05-14T11:08:23;4.45;;;4.05;;
30743;SDS011;17486;46.738;7.622;2023-05-14T11:10:52;4.75;;;4.35;;
30743;SDS011;17486;46.738;7.622;2023-05-14T11:13:20;5.07;;;4.65;;
30743;SDS011;17486;46.738;7.622;2023-05-14T11:15:45;5.75;;;4.63;;
30743;SDS011;17486;46.738;7.622;2023-05-14T11:18:12;5.15;;;4.75;;
30743;SDS011;17486;46.738;7.622;2023-05-14T11:20:40;4.68;;;4.28;;
30743;SDS011;17486;46.738;7.622;2023-05-14T11:23:07;5.03;;;4.63;;
30743;SDS011;17486;46.738;7.622;2023-05-14T11:25:33;5.32;;;4.82;;
30743;SDS011;17486;46.738;7.622;2023-05-14T11:27:59;7.18;;;6.45;;
30743;SDS011;17486;46.738;7.622;2023-05-14T11:30:24;6.50;;;6.00;;
30743;SDS011;17486;46.738;7.622;2023-05-14T11:32:50;5.88;;;5.38;;
30743;SDS011;17486;46.738;7.622;2023-05-14T11:35:16;6.40;;;5.80;;
30743;SDS011;17486;46.738;7.622;2023-05-14T11:37:42;7.95;;;6.25;;
30743;SDS011;17486;46.738;7.622;2023-05-14T11:40:13;6.45;;;5.95;;
30743;SDS011;17486;46.738;7.622;2023-05-14T11:42:42;7.07;;;6.47;;
30743;SDS011;17486;46.738;7.622;2023-05-14T11:45:11;6.68;;;6.03;;
30743;SDS011;17486;46.738;7.622;2023-05-14T11:47:37;7.07;;;6.38;;
30743;SDS011;17486;46.738;7.622;2023-05-14T11:50:03;6.10;;;5.50;;
30743;SDS011;17486;46.738;7.622;2023-05-14T11:52:28;6.43;;;5.82;;
30743;SDS011;17486;46.738;7.622;2023-05-14T11:54:54;7.28;;;6.57;;
30743;SDS011;17486;46.738;7.622;2023-05-14T11:57:20;7.38;;;6.68;;
30743;SDS011;17486;46.738;7.622;2023-05-14T11:59:53;6.40;;;5.80;;
30743;SDS011;17486;46.738;7.622;2023-05-14T12:02:22;56.22;;;45.28;;
30743;SDS011;17486;46.738;7.622;2023-05-14T12:04:52;78.70;;;59.20;;
30743;SDS011;17486;46.738;7.622;2023-05-14T12:07:17;211.40;;;170.13;;
30743;SDS011;17486;46.738;7.622;2023-05-14T12:09:46;60.08;;;51.45;;
30743;SDS011;17486;46.738;7.622;2023-05-14T12:12:13;17.73;;;15.80;;
30743;SDS011;17486;46.738;7.622;2023-05-14T12:14:41;9.23;;;8.40;;
30743;SDS011;17486;46.738;7.622;2023-05-14T12:17:17;8.55;;;7.20;;
30743;SDS011;17486;46.738;7.622;2023-05-14T12:19:44;7.82;;;7.05;;
30743;SDS011;17486;46.738;7.622;2023-05-14T12:22:30;7.70;;;7.00;;
30743;SDS011;17486;46.738;7.622;2023-05-14T12:24:56;7.60;;;6.88;;
30743;SDS011;17486;46.738;7.622;2023-05-14T12:27:23;6.50;;;5.90;;
30743;SDS011;17486;46.738;7.622;2023-05-14T12:29:57;5.07;;;4.53;;
30743;SDS011;17486;46.738;7.622;2023-05-14T12:32:27;4.55;;;4.15;;
30743;SDS011;17486;46.738;7.622;2023-05-14T12:34:52;3.53;;;3.22;;
30743;SDS011;17486;46.738;7.622;2023-05-14T12:37:17;3.22;;;3.03;;
30743;SDS011;17486;46.738;7.622;2023-05-14T12:39:43;3.08;;;2.65;;
30743;SDS011;17486;46.738;7.622;2023-05-14T12:42:09;2.80;;;2.30;;
30743;SDS011;17486;46.738;7.622;2023-05-14T12:44:34;2.60;;;2.40;;
30743;SDS011;17486;46.738;7.622;2023-05-14T12:46:59;2.00;;;1.90;;
30743;SDS011;17486;46.738;7.622;2023-05-14T12:49:25;1.70;;;1.60;;
30743;SDS011;17486;46.738;7.622;2023-05-14T12:51:50;3.05;;;1.98;;
30743;SDS011;17486;46.738;7.622;2023-05-14T12:54:16;2.47;;;2.28;;
30743;SDS011;17486;46.738;7.622;2023-05-14T12:56:41;2.38;;;2.17;;
30743;SDS011;17486;46.738;7.622;2023-05-14T12:59:06;2.60;;;2.40;;
30743;SDS011;17486;46.738;7.622;2023-05-14T13:01:33;66.13;;;48.70;;
30743;SDS011;17486;46.738;7.622;2023-05-14T13:03:58;219.63;;;154.90;;
30743;SDS011;17486;46.738;7.622;2023-05-14T13:06:24;161.40;;;114.28;;
30743;SDS011;17486;46.738;7.622;2023-05-14T13:08:49;59.50;;;44.53;;
30743;SDS011;17486;46.738;7.622;2023-05-14T13:11:14;18.10;;;12.85;;
30743;SDS011;17486;46.738;7.622;2023-05-14T13:13:40;7.63;;;6.82;;
30743;SDS011;17486;46.738;7.622;2023-05-14T13:16:05;4.38;;;3.97;;
30743;SDS011;17486;46.738;7.622;2023-05-14T13:18:31;4.72;;;4.30;;
30743;SDS011;17486;46.738;7.622;2023-05-14T13:20:56;3.80;;;3.50;;
30743;SDS011;17486;46.738;7.622;2023-05-14T13:23:21;3.50;;;3.20;;
30743;SDS011;17486;46.738;7.622;2023-05-14T13:25:47;5.00;;;3.60;;
30743;SDS011;17486;46.738;7.622;2023-05-14T13:28:12;3.67;;;3.38;;
30743;SDS011;17486;46.738;7.622;2023-05-14T13:30:38;3.83;;;3.05;;
30743;SDS011;17486;46.738;7.622;2023-05-14T13:33:03;3.20;;;2.92;;
30743;SDS011;17486;46.738;7.622;2023-05-14T13:35:29;3.22;;;2.97;;
30743;SDS011;17486;46.738;7.622;2023-05-14T13:37:54;3.05;;;2.75;;
30743;SDS011;17486;46.738;7.622;2023-05-14T13:40:20;2.75;;;2.55;;
30743;SDS011;17486;46.738;7.622;2023-05-14T13:42:45;3.63;;;3.33;;
30743;SDS011;17486;46.738;7.622;2023-05-14T13:45:10;6.18;;;4.60;;
30743;SDS011;17486;46.738;7.622;2023-05-14T13:47:36;7.78;;;7.18;;
30743;SDS011;17486;46.738;7.622;2023-05-14T13:50:02;8.38;;;7.13;;
30743;SDS011;17486;46.738;7.622;2023-05-14T13:52:27;5.13;;;4.68;;
30743;SDS011;17486;46.738;7.622;2023-05-14T13:54:53;4.15;;;3.83;;
30743;SDS011;17486;46.738;7.622;2023-05-14T13:57:18;4.55;;;3.83;;
30743;SDS011;17486;46.738;7.622;2023-05-14T13:59:45;3.78;;;3.42;;
30743;SDS011;17486;46.738;7.622;2023-05-14T14:02:11;4.30;;;3.90;;
30743;SDS011;17486;46.738;7.622;2023-05-14T14:04:36;3.90;;;3.60;;
30743;SDS011;17486;46.738;7.622;2023-05-14T14:07:02;6.30;;;4.22;;
30743;SDS011;17486;46.738;7.622;2023-05-14T14:09:27;4.70;;;4.30;;
30743;SDS011;17486;46.738;7.622;2023-05-14T14:11:52;4.60;;;4.22;;
30743;SDS011;17486;46.738;7.622;2023-05-14T14:14:18;5.00;;;4.50;;
30743;SDS011;17486;46.738;7.622;2023-05-14T14:16:44;5.10;;;4.57;;
30743;SDS011;17486;46.738;7.622;2023-05-14T14:19:09;6.10;;;5.50;;
30743;SDS011;17486;46.738;7.622;2023-05-14T14:21:35;5.10;;;4.68;;
30743;SDS011;17486;46.738;7.622;2023-05-14T14:24:03;5.07;;;4.68;;
30743;SDS011;17486;46.738;7.622;2023-05-14T14:26:29;5.22;;;4.63;;
30743;SDS011;17486;46.738;7.622;2023-05-14T14:28:55;5.05;;;4.20;;
30743;SDS011;17486;46.738;7.622;2023-05-14T14:31:20;3.97;;;3.67;;
30743;SDS011;17486;46.738;7.622;2023-05-14T14:33:46;4.43;;;3.60;;
30743;SDS011;17486;46.738;7.622;2023-05-14T14:36:11;2.58;;;2.38;;
30743;SDS011;17486;46.738;7.622;2023-05-14T14:38:37;2.70;;;2.50;;
30743;SDS011;17486;46.738;7.622;2023-05-14T14:41:03;2.10;;;1.90;;
30743;SDS011;17486;46.738;7.622;2023-05-14T14:43:31;1.33;;;1.23;;
30743;SDS011;17486;46.738;7.622;2023-05-14T14:45:56;1.50;;;1.40;;
30743;SDS011;17486;46.738;7.622;2023-05-14T14:48:25;7.90;;;5.22;;
30743;SDS011;17486;46.738;7.622;2023-05-14T14:50:51;12.80;;;7.65;;
30743;SDS011;17486;46.738;7.622;2023-05-14T14:53:18;5.60;;;3.92;;
30743;SDS011;17486;46.738;7.622;2023-05-14T14:55:44;3.17;;;2.33;;
30743;SDS011;17486;46.738;7.622;2023-05-14T14:58:10;2.60;;;2.40;;
30743;SDS011;17486;46.738;7.622;2023-05-14T15:00:35;2.85;;;2.65;;
30743;SDS011;17486;46.738;7.622;2023-05-14T15:03:00;2.40;;;2.20;;